createdAt,value
2018-10-12T00:02:24.789Z,11.70
2018-10-12T00:04:54.911Z,11.70
2018-10-12T00:07:24.673Z,11.70
2018-10-12T00:09:54.687Z,11.70
2018-10-12T00:12:24.243Z,11.60
2018-10-12T00:14:53.540Z,11.60
2018-10-12T00:17:22.846Z,11.60
2018-10-12T00:19:52.130Z,11.60
2018-10-12T00:22:21.459Z,11.60
2018-10-12T00:24:50.803Z,11.60
2018-10-12T00:27:20.462Z,11.60
2018-10-12T00:29:49.764Z,11.50
2018-10-12T00:32:20.398Z,11.50
2018-10-12T00:34:50.321Z,11.50
2018-10-12T00:37:20.786Z,11.50
2018-10-12T00:39:51.884Z,11.50
2018-10-12T00:42:24.283Z,11.40
2018-10-12T00:44:53.518Z,11.40
2018-10-12T00:47:22.893Z,11.50
2018-10-12T00:49:52.224Z,11.40
2018-10-12T00:52:21.577Z,11.40
2018-10-12T00:54:51.201Z,11.40
2018-10-12T00:57:20.377Z,11.40
2018-10-12T00:59:49.623Z,11.40
2018-10-12T01:02:20.796Z,11.40
2018-10-12T01:04:52.546Z,11.40
2018-10-12T01:07:23.132Z,11.40
2018-10-12T01:09:52.376Z,11.30
2018-10-12T01:12:34.786Z,11.40
2018-10-12T01:15:04.477Z,11.40
2018-10-12T01:17:34.464Z,11.40
2018-10-12T01:20:05.007Z,11.30
2018-10-12T01:22:34.601Z,11.30
2018-10-12T01:25:05.560Z,11.30
2018-10-12T01:27:34.957Z,11.20
2018-10-12T01:30:07.037Z,11.20
2018-10-12T01:32:41.438Z,11.20
2018-10-12T01:35:10.807Z,11.20
2018-10-12T01:37:40.300Z,11.20
2018-10-12T01:40:09.697Z,11.10
2018-10-12T01:42:38.960Z,11.10
2018-10-12T01:45:09.597Z,11.10
2018-10-12T01:47:38.991Z,11.10
2018-10-12T01:50:08.235Z,11.10
2018-10-12T01:52:37.456Z,11.20
2018-10-12T01:55:07.380Z,11.20
2018-10-12T01:57:36.535Z,11.20
2018-10-12T02:00:06.850Z,11.20
2018-10-12T02:02:41.196Z,11.20
2018-10-12T02:05:10.465Z,11.20
2018-10-12T02:07:40.269Z,11.20
2018-10-12T02:10:09.605Z,11.20
2018-10-12T02:12:39.757Z,11.30
2018-10-12T02:15:09.045Z,11.30
2018-10-12T02:17:40.635Z,11.40
2018-10-12T02:20:10.482Z,11.50
2018-10-12T02:22:39.783Z,11.60
2018-10-12T02:25:10.780Z,11.70
2018-10-12T02:27:40.052Z,11.80
2018-10-12T02:30:10.012Z,11.90
2018-10-12T02:32:39.267Z,12.00
2018-10-12T02:35:09.732Z,12.00
2018-10-12T02:37:39.082Z,12.00
2018-10-12T02:40:08.377Z,11.90
2018-10-12T02:42:37.686Z,11.90
2018-10-12T02:45:07.375Z,11.90
2018-10-12T02:47:36.711Z,11.80
2018-10-12T02:50:06.771Z,11.80
2018-10-12T02:52:36.015Z,11.80
2018-10-12T02:55:05.355Z,11.70
2018-10-12T02:57:35.086Z,11.70
2018-10-12T03:00:04.951Z,11.70
2018-10-12T03:02:34.306Z,11.70
2018-10-12T03:05:03.497Z,11.70
2018-10-12T03:07:33.362Z,11.70
2018-10-12T03:10:03.242Z,11.70
2018-10-12T03:12:32.530Z,11.70
2018-10-12T03:15:04.336Z,11.70
2018-10-12T03:17:38.893Z,11.70
2018-10-12T03:20:08.465Z,11.70
2018-10-12T03:22:37.487Z,11.60
2018-10-12T03:25:06.801Z,11.70
2018-10-12T03:27:47.342Z,11.70
2018-10-12T03:30:16.599Z,11.60
2018-10-12T03:32:46.956Z,11.60
2018-10-12T03:35:21.577Z,11.70
2018-10-12T03:37:50.711Z,11.80
2018-10-12T03:40:19.937Z,11.90
2018-10-12T03:42:49.130Z,12.00
2018-10-12T03:45:19.635Z,12.10
2018-10-12T03:47:48.975Z,12.20
2018-10-12T03:50:18.221Z,12.30
2018-10-12T03:52:48.658Z,12.40
2018-10-12T03:55:20.247Z,12.50
2018-10-12T03:57:50.187Z,12.60
2018-10-12T04:00:21.223Z,12.60
2018-10-12T04:02:50.497Z,12.70
2018-10-12T04:05:20.896Z,12.70
2018-10-12T04:07:52.820Z,12.80
2018-10-12T04:10:23.642Z,12.80
2018-10-12T04:12:53.462Z,12.80
2018-10-12T04:15:22.955Z,12.80
2018-10-12T04:17:52.119Z,12.80
2018-10-12T04:20:21.309Z,12.80
2018-10-12T04:22:51.052Z,12.80
2018-10-12T04:25:21.028Z,12.80
2018-10-12T04:27:50.701Z,12.70
2018-10-12T04:30:20.686Z,12.70
2018-10-12T04:32:49.923Z,12.70
2018-10-12T04:35:19.122Z,12.60
2018-10-12T04:37:48.470Z,12.80
2018-10-12T04:42:33.106Z,12.60
2018-10-12T04:45:02.428Z,12.50
2018-10-12T04:47:32.530Z,12.40
2018-10-12T04:50:02.456Z,12.40
2018-10-12T04:52:33.246Z,12.30
2018-10-12T04:55:02.402Z,12.30
2018-10-12T04:57:33.586Z,12.30
2018-10-12T05:00:02.794Z,12.30
2018-10-12T05:02:32.084Z,12.40
2018-10-12T05:05:01.332Z,12.50
2018-10-12T05:07:30.449Z,12.50
2018-10-12T05:09:59.696Z,12.50
2018-10-12T05:12:29.782Z,12.60
2018-10-12T05:14:59.161Z,12.60
2018-10-12T05:17:28.329Z,12.70
2018-10-12T05:19:57.620Z,12.70
2018-10-12T05:22:27.112Z,12.80
2018-10-12T05:24:56.300Z,12.80
2018-10-12T05:27:25.386Z,12.80
2018-10-12T05:29:54.556Z,12.90
2018-10-12T05:32:24.011Z,12.90
2018-10-12T05:34:53.244Z,12.90
2018-10-12T05:37:22.371Z,12.90
2018-10-12T05:39:51.586Z,12.80
2018-10-12T05:42:21.784Z,12.80
2018-10-12T05:44:52.634Z,12.70
2018-10-12T05:47:23.062Z,12.70
2018-10-12T05:50:03.347Z,12.60
2018-10-12T05:52:33.254Z,12.60
2018-10-12T05:55:03.302Z,12.50
2018-10-12T05:57:34.849Z,12.50
2018-10-12T06:00:04.215Z,12.50
2018-10-12T06:02:33.980Z,12.40
2018-10-12T06:05:03.981Z,12.40
2018-10-12T06:07:33.239Z,12.40
2018-10-12T06:10:02.759Z,12.30
2018-10-12T06:12:33.424Z,12.30
2018-10-12T06:15:02.679Z,12.30
2018-10-12T06:17:32.589Z,12.30
2018-10-12T06:20:04.514Z,12.30
2018-10-12T06:22:34.526Z,12.30
2018-10-12T06:25:04.281Z,12.30
2018-10-12T06:27:34.330Z,12.40
2018-10-12T06:30:03.779Z,12.40
2018-10-12T06:32:33.450Z,12.40
2018-10-12T06:35:02.771Z,12.50
2018-10-12T06:37:32.476Z,12.50
2018-10-12T06:40:02.032Z,12.60
2018-10-12T06:42:31.240Z,12.60
2018-10-12T06:45:00.692Z,12.70
2018-10-12T06:47:30.196Z,12.80
2018-10-12T06:49:59.605Z,12.80
2018-10-12T06:52:28.876Z,12.90
2018-10-12T06:54:58.939Z,13.00
2018-10-12T06:57:28.244Z,13.10
2018-10-12T06:59:58.600Z,13.10
2018-10-12T07:02:27.897Z,13.20
2018-10-12T07:04:57.389Z,13.30
2018-10-12T07:07:26.700Z,13.40
2018-10-12T07:09:57.009Z,13.50
2018-10-12T07:12:26.356Z,13.60
2018-10-12T07:14:56.016Z,13.70
2018-10-12T07:17:25.211Z,13.70
2018-10-12T07:19:54.428Z,13.80
2018-10-12T07:22:23.521Z,13.90
2018-10-12T07:24:52.570Z,14.00
2018-10-12T07:27:23.329Z,14.10
2018-10-12T07:29:53.859Z,14.20
2018-10-12T07:32:22.974Z,14.30
2018-10-12T07:34:52.163Z,14.40
2018-10-12T07:37:21.527Z,14.50
2018-10-12T07:39:50.825Z,14.60
2018-10-12T07:42:21.210Z,14.70
2018-10-12T07:44:50.398Z,14.80
2018-10-12T07:47:19.711Z,14.90
2018-10-12T07:49:53.062Z,15.00
2018-10-12T07:52:22.199Z,15.00
2018-10-12T07:54:53.661Z,15.20
2018-10-12T07:57:27.372Z,15.30
2018-10-12T07:59:58.030Z,15.30
2018-10-12T08:02:34.210Z,15.40
2018-10-12T08:05:03.409Z,15.40
2018-10-12T08:07:33.645Z,15.50
2018-10-12T08:10:06.322Z,15.50
2018-10-12T08:12:36.493Z,15.50
2018-10-12T08:15:09.679Z,15.70
2018-10-12T08:17:38.930Z,15.80
2018-10-12T08:20:08.950Z,16.00
2018-10-12T08:22:40.184Z,16.20
2018-10-12T08:25:09.997Z,16.30
2018-10-12T08:27:39.470Z,16.40
2018-10-12T08:30:09.164Z,16.50
2018-10-12T08:32:38.816Z,16.60
2018-10-12T08:35:08.193Z,16.70
2018-10-12T08:37:39.174Z,16.70
2018-10-12T08:40:09.082Z,16.70
2018-10-12T08:42:40.239Z,16.80
2018-10-12T08:45:09.514Z,16.90
2018-10-12T08:47:41.780Z,16.90
2018-10-12T08:50:11.905Z,16.90
2018-10-12T08:52:41.028Z,17.00
2018-10-12T08:55:09.903Z,17.10
2018-10-12T08:57:43.754Z,17.10
2018-10-12T09:00:13.304Z,17.20
2018-10-12T09:02:42.445Z,17.30
2018-10-12T09:05:11.606Z,17.40
2018-10-12T09:07:40.784Z,17.60
2018-10-12T09:10:11.570Z,17.60
2018-10-12T09:12:41.204Z,17.70
2018-10-12T09:15:11.373Z,17.80
2018-10-12T09:17:40.555Z,17.90
2018-10-12T09:20:10.190Z,18.00
2018-10-12T09:22:39.458Z,18.10
2018-10-12T09:25:08.765Z,18.10
2018-10-12T09:27:37.999Z,18.20
2018-10-12T09:30:07.348Z,18.30
2018-10-12T09:32:36.469Z,18.40
2018-10-12T09:35:07.815Z,18.60
2018-10-12T09:37:37.966Z,18.80
2018-10-12T09:40:07.900Z,19.00
2018-10-12T09:42:37.121Z,19.10
2018-10-12T09:45:07.502Z,19.10
2018-10-12T09:47:36.922Z,19.10
2018-10-12T09:50:07.359Z,19.20
2018-10-12T09:52:37.290Z,19.20
2018-10-12T09:55:06.665Z,19.40
2018-10-12T09:57:38.844Z,19.50
2018-10-12T10:00:13.459Z,19.70
2018-10-12T10:02:51.377Z,19.80
2018-10-12T10:05:23.464Z,20.00
2018-10-12T10:07:56.613Z,20.20
2018-10-12T10:10:26.519Z,20.20
2018-10-12T10:12:55.743Z,20.20
2018-10-12T10:15:25.141Z,20.20
2018-10-12T10:17:54.635Z,20.10
2018-10-12T10:20:24.528Z,20.10
2018-10-12T10:22:55.463Z,20.10
2018-10-12T10:25:25.420Z,20.10
2018-10-12T10:27:55.384Z,20.10
2018-10-12T10:30:26.067Z,20.10
2018-10-12T10:32:55.640Z,20.00
2018-10-12T10:35:25.977Z,20.10
2018-10-12T10:37:56.436Z,20.00
2018-10-12T10:40:27.324Z,20.10
2018-10-12T10:42:59.268Z,20.20
2018-10-12T10:45:30.839Z,20.30
2018-10-12T10:48:01.799Z,20.40
2018-10-12T10:50:31.244Z,20.50
2018-10-12T10:53:01.502Z,20.70
2018-10-12T10:55:30.970Z,20.80
2018-10-12T10:58:00.211Z,20.90
2018-10-12T11:00:30.130Z,21.00
2018-10-12T11:02:59.302Z,21.00
2018-10-12T11:05:28.903Z,21.00
2018-10-12T11:08:00.330Z,21.10
2018-10-12T11:10:29.541Z,21.10
2018-10-12T11:13:02.435Z,21.10
2018-10-12T11:15:32.041Z,21.10
2018-10-12T11:18:01.256Z,21.10
2018-10-12T11:20:31.610Z,21.10
2018-10-12T11:23:01.474Z,21.10
2018-10-12T11:25:32.543Z,21.10
2018-10-12T11:28:01.779Z,21.10
2018-10-12T11:30:31.035Z,21.20
2018-10-12T11:33:00.282Z,21.10
2018-10-12T11:35:37.430Z,21.20
2018-10-12T11:38:07.333Z,21.30
2018-10-12T11:40:36.616Z,21.30
2018-10-12T11:43:17.292Z,21.30
2018-10-12T11:45:46.454Z,21.30
2018-10-12T11:48:16.365Z,21.40
2018-10-12T11:50:46.075Z,21.50
2018-10-12T11:53:17.394Z,21.60
2018-10-12T11:55:46.635Z,21.60
2018-10-12T11:58:17.003Z,21.60
2018-10-12T12:00:46.278Z,21.70
2018-10-12T12:03:16.549Z,21.70
2018-10-12T12:05:46.104Z,21.70
2018-10-12T12:08:15.462Z,21.80
2018-10-12T12:10:44.858Z,21.80
2018-10-12T12:15:52.013Z,21.90
2018-10-12T12:18:22.558Z,21.90
2018-10-12T12:20:51.739Z,22.00
2018-10-12T12:23:21.043Z,22.00
2018-10-12T12:25:50.550Z,22.00
2018-10-12T12:28:22.781Z,22.00
2018-10-12T12:30:52.120Z,22.00
2018-10-12T12:33:21.380Z,22.10
2018-10-12T12:35:51.394Z,22.10
2018-10-12T12:38:21.316Z,22.20
2018-10-12T12:40:50.669Z,22.20
2018-10-12T12:43:20.532Z,22.10
2018-10-12T12:45:51.965Z,22.20
2018-10-12T12:48:21.645Z,22.20
2018-10-12T12:50:50.648Z,22.20
2018-10-12T12:53:21.791Z,22.30
2018-10-12T12:55:52.028Z,22.30
2018-10-12T12:58:23.738Z,22.30
2018-10-12T13:00:53.090Z,22.40
2018-10-12T13:03:22.392Z,22.40
2018-10-12T13:05:51.689Z,22.40
2018-10-12T13:08:21.455Z,22.40
2018-10-12T13:10:50.742Z,22.40
2018-10-12T13:13:20.309Z,22.40
2018-10-12T13:15:50.096Z,22.40
2018-10-12T13:18:21.061Z,22.40
2018-10-12T13:20:51.855Z,22.50
2018-10-12T13:23:24.379Z,22.50
2018-10-12T13:25:54.676Z,22.50
2018-10-12T13:28:27.764Z,22.50
2018-10-12T13:30:58.716Z,22.60
2018-10-12T13:33:28.344Z,22.60
2018-10-12T13:35:57.999Z,22.60
2018-10-12T13:38:29.019Z,22.60
2018-10-12T13:40:58.779Z,22.60
2018-10-12T13:43:28.905Z,22.60
2018-10-12T13:46:00.899Z,22.60
2018-10-12T13:48:30.518Z,22.50
2018-10-12T13:51:00.207Z,22.50
2018-10-12T13:53:31.481Z,22.60
2018-10-12T13:56:01.763Z,22.60
2018-10-12T13:58:31.719Z,22.60
2018-10-12T14:01:02.413Z,22.60
2018-10-12T14:03:31.692Z,22.60
2018-10-12T14:06:01.997Z,22.60
2018-10-12T14:08:33.608Z,22.60
2018-10-12T14:11:03.413Z,22.60
2018-10-12T14:13:36.818Z,22.60
2018-10-12T14:16:06.915Z,22.70
2018-10-12T14:18:36.610Z,22.80
2018-10-12T14:21:06.819Z,22.80
2018-10-12T14:23:37.106Z,22.80
2018-10-12T14:26:06.632Z,22.70
2018-10-12T14:28:37.464Z,22.70
2018-10-12T14:31:09.009Z,22.60
2018-10-12T14:33:38.312Z,22.60
2018-10-12T14:36:13.117Z,22.50
2018-10-12T14:38:43.568Z,22.50
2018-10-12T14:41:19.598Z,22.50
2018-10-12T14:43:50.088Z,22.40
2018-10-12T14:46:21.022Z,22.40
2018-10-12T14:48:51.065Z,22.30
2018-10-12T14:51:24.258Z,22.30
2018-10-12T14:53:53.602Z,22.40
2018-10-12T14:56:24.724Z,22.40
2018-10-12T14:58:55.692Z,22.40
2018-10-12T15:01:25.304Z,22.40
2018-10-12T15:03:55.362Z,22.40
2018-10-12T15:06:26.075Z,22.40
2018-10-12T15:08:55.667Z,22.40
2018-10-12T15:11:24.987Z,22.40
2018-10-12T15:13:54.314Z,22.30
2018-10-12T15:16:26.043Z,22.30
2018-10-12T15:18:57.747Z,22.30
2018-10-12T15:21:28.001Z,22.20
2018-10-12T15:23:58.101Z,22.20
2018-10-12T15:26:29.598Z,22.20
2018-10-12T15:29:01.579Z,22.20
2018-10-12T15:31:32.595Z,22.10
2018-10-12T15:34:02.761Z,22.10
2018-10-12T15:36:32.959Z,22.10
2018-10-12T15:39:03.028Z,22.00
2018-10-12T15:41:33.377Z,22.00
2018-10-12T15:44:02.697Z,21.90
2018-10-12T15:46:32.119Z,21.90
2018-10-12T15:49:02.049Z,21.80
2018-10-12T15:51:32.225Z,21.80
2018-10-12T15:54:01.491Z,21.70
2018-10-12T15:56:32.973Z,21.70
2018-10-12T15:59:02.494Z,21.70
2018-10-12T16:01:32.722Z,21.70
2018-10-12T16:04:02.760Z,21.60
2018-10-12T16:06:32.557Z,21.50
2018-10-12T16:09:02.372Z,21.50
2018-10-12T16:11:33.232Z,21.40
2018-10-12T16:14:03.024Z,21.30
2018-10-12T16:16:34.627Z,21.30
2018-10-12T16:19:05.907Z,21.20
2018-10-12T16:21:36.057Z,21.20
2018-10-12T16:24:10.888Z,21.10
2018-10-12T16:26:40.248Z,21.10
2018-10-12T16:29:14.499Z,20.90
2018-10-12T16:31:44.553Z,20.90
2018-10-12T16:34:14.653Z,20.80
2018-10-12T16:36:46.838Z,20.80
2018-10-12T16:39:17.264Z,20.70
2018-10-12T16:41:46.714Z,20.60
2018-10-12T16:44:15.992Z,20.60
2018-10-12T16:46:45.410Z,20.50
2018-10-12T16:49:17.777Z,20.40
2018-10-12T16:51:48.515Z,20.40
2018-10-12T16:54:17.759Z,20.30
2018-10-12T16:56:48.947Z,20.20
2018-10-12T16:59:19.813Z,20.10
2018-10-12T17:01:52.570Z,20.10
2018-10-12T17:04:21.871Z,20.00
2018-10-12T17:07:00.191Z,20.00
2018-10-12T17:09:31.777Z,20.00
2018-10-12T17:12:03.506Z,19.90
2018-10-12T17:14:32.822Z,19.90
2018-10-12T17:17:02.462Z,19.90
2018-10-12T17:19:31.862Z,19.90
2018-10-12T17:22:01.673Z,19.80
2018-10-12T17:24:31.813Z,19.80
2018-10-12T17:27:01.789Z,19.70
2018-10-12T17:29:32.054Z,19.70
2018-10-12T17:32:02.939Z,19.60
2018-10-12T17:34:33.351Z,19.50
2018-10-12T17:37:02.794Z,19.50
2018-10-12T17:39:33.057Z,19.40
2018-10-12T17:42:18.899Z,19.40
2018-10-12T17:44:51.573Z,19.40
2018-10-12T17:47:22.979Z,19.30
2018-10-12T17:49:54.883Z,19.30
2018-10-12T17:52:24.238Z,19.30
2018-10-12T17:54:53.636Z,19.30
2018-10-12T17:57:24.833Z,19.30
2018-10-12T17:59:58.120Z,19.20
2018-10-12T18:02:28.397Z,19.20
2018-10-12T18:04:57.687Z,19.20
2018-10-12T18:07:27.161Z,19.20
2018-10-12T18:09:57.643Z,19.20
2018-10-12T18:12:27.913Z,19.10
2018-10-12T18:14:58.088Z,19.10
2018-10-12T18:17:28.885Z,19.10
2018-10-12T18:19:58.844Z,19.00
2018-10-12T18:22:28.309Z,19.00
2018-10-12T18:25:03.752Z,18.90
2018-10-12T18:27:33.132Z,18.80
2018-10-12T18:30:03.172Z,18.80
2018-10-12T18:32:40.332Z,18.80
2018-10-12T18:35:09.726Z,18.70
2018-10-12T18:37:40.792Z,18.60
2018-10-12T18:40:11.982Z,18.60
2018-10-12T18:42:41.422Z,18.60
2018-10-12T18:45:18.693Z,18.50
2018-10-12T18:47:50.146Z,18.50
2018-10-12T18:50:19.649Z,18.50
2018-10-12T18:52:49.009Z,18.40
2018-10-12T18:55:19.378Z,18.40
2018-10-12T18:57:51.623Z,18.30
2018-10-12T19:00:23.119Z,18.30
2018-10-12T19:02:53.222Z,18.30
2018-10-12T19:05:23.529Z,18.30
2018-10-12T19:07:54.388Z,18.20
2018-10-12T19:10:26.272Z,18.30
2018-10-12T19:13:02.020Z,18.20
2018-10-12T19:15:33.835Z,18.20
2018-10-12T19:18:03.835Z,18.20
2018-10-12T19:20:38.374Z,18.20
2018-10-12T19:23:11.063Z,18.20
2018-10-12T19:25:44.028Z,18.20
2018-10-12T19:28:19.443Z,18.20
2018-10-12T19:30:54.264Z,18.20
2018-10-12T19:33:27.760Z,18.10
2018-10-12T19:35:58.806Z,18.10
2018-10-12T19:38:28.373Z,18.00
2018-10-12T19:41:02.926Z,17.90
2018-10-12T19:43:34.463Z,17.90
2018-10-12T19:46:05.757Z,17.80
2018-10-12T19:48:37.257Z,17.80
2018-10-12T19:51:07.783Z,17.70
2018-10-12T19:53:40.172Z,17.70
2018-10-12T19:56:10.413Z,17.70
2018-10-12T19:58:40.058Z,17.60
2018-10-12T20:01:10.453Z,17.60
2018-10-12T20:03:41.252Z,17.60
2018-10-12T20:06:13.461Z,17.60
2018-10-12T20:08:50.166Z,17.50
2018-10-12T20:11:21.336Z,17.50
2018-10-12T20:13:54.191Z,17.40
2018-10-12T20:16:23.497Z,17.40
2018-10-12T20:18:55.639Z,17.40
2018-10-12T20:21:26.916Z,17.40
2018-10-12T20:23:57.645Z,17.40
2018-10-12T20:26:29.242Z,17.40
2018-10-12T20:29:04.059Z,17.40
2018-10-12T20:31:34.057Z,17.40
2018-10-12T20:34:04.985Z,17.30
2018-10-12T20:36:35.796Z,17.30
2018-10-12T20:39:11.391Z,17.30
2018-10-12T20:41:43.011Z,17.30
2018-10-12T20:44:14.791Z,17.30
2018-10-12T20:46:45.701Z,17.20
2018-10-12T20:49:16.923Z,17.20
2018-10-12T20:51:46.729Z,17.20
2018-10-12T20:54:21.557Z,17.20
2018-10-12T20:56:50.889Z,17.20
2018-10-12T20:59:20.643Z,17.20
2018-10-12T21:01:50.043Z,17.20
2018-10-12T21:04:20.651Z,17.10
2018-10-12T21:06:51.465Z,17.10
2018-10-12T21:09:20.657Z,17.10
2018-10-12T21:11:52.106Z,17.10
2018-10-12T21:17:30.176Z,17.10
2018-10-12T21:20:03.146Z,17.10
2018-10-12T21:22:38.363Z,17.00
2018-10-12T21:25:13.500Z,17.00
2018-10-12T21:27:45.732Z,17.00
2018-10-12T21:30:27.409Z,17.00
2018-10-12T21:32:59.005Z,17.00
2018-10-12T21:35:28.154Z,17.00
2018-10-12T21:38:00.656Z,17.00
2018-10-12T21:40:32.995Z,17.00
2018-10-12T21:43:05.435Z,17.00
2018-10-12T21:45:41.197Z,17.10
2018-10-12T21:48:13.170Z,17.10
2018-10-12T21:50:45.982Z,17.20
2018-10-12T21:53:15.722Z,17.20
2018-10-12T21:55:48.702Z,17.20
2018-10-12T21:58:20.307Z,17.30
2018-10-12T22:00:54.973Z,17.30
2018-10-12T22:03:24.467Z,17.30
2018-10-12T22:05:56.089Z,17.30
2018-10-12T22:08:35.347Z,17.30
2018-10-12T22:11:06.243Z,17.40
2018-10-12T22:13:37.735Z,17.40
2018-10-12T22:16:10.973Z,17.40
2018-10-12T22:18:53.257Z,17.40
2018-10-12T22:21:25.012Z,17.40
2018-10-12T22:23:55.962Z,17.40
2018-10-12T22:26:26.023Z,17.40
2018-10-12T22:28:57.773Z,17.50
2018-10-12T22:31:27.412Z,17.50
2018-10-12T22:33:57.442Z,17.50
2018-10-12T22:36:29.686Z,17.50
2018-10-12T22:39:00.518Z,17.50
2018-10-12T22:41:29.816Z,17.50
2018-10-12T22:44:00.882Z,17.50
2018-10-12T22:46:31.473Z,17.50
2018-10-12T22:49:02.278Z,17.50
2018-10-12T22:51:32.393Z,17.50
2018-10-12T22:54:03.305Z,17.50
2018-10-12T22:56:32.692Z,17.50
2018-10-12T22:59:02.028Z,17.50
2018-10-12T23:01:31.718Z,17.50
2018-10-12T23:04:01.342Z,17.50
2018-10-12T23:06:30.740Z,17.50
2018-10-12T23:09:00.576Z,17.50
2018-10-12T23:11:31.701Z,17.50
2018-10-12T23:14:01.915Z,17.40
2018-10-12T23:16:30.896Z,17.40
2018-10-12T23:19:00.332Z,17.40
2018-10-12T23:21:31.277Z,17.40
2018-10-12T23:24:04.681Z,17.40
2018-10-12T23:26:41.696Z,17.40
2018-10-12T23:29:11.106Z,17.40
2018-10-12T23:31:42.695Z,17.40
2018-10-12T23:34:17.384Z,17.40
2018-10-12T23:36:47.686Z,17.30
2018-10-12T23:39:18.257Z,17.30
2018-10-12T23:41:47.586Z,17.30
2018-10-12T23:44:18.067Z,17.30
2018-10-12T23:46:49.341Z,17.30
2018-10-12T23:49:24.739Z,17.30
2018-10-12T23:51:54.185Z,17.30
2018-10-12T23:54:24.160Z,17.30
2018-10-12T23:56:55.697Z,17.30
2018-10-12T23:59:26.696Z,17.30
